Time;durP1;ratioP1;P1;durP2;ratioP2;P2;SDS_P1;SDS_P2;PMS_P1;PMS_P2;Temp;Humidity;BMP_temperature;BMP_pressure;BME280_temperature;BME280_humidity;BME280_pressure;Samples;Min_cycle;Max_cycle;Signal;HPM_P1;HPM_P2
2021/11/25 00:01:12;;;;;;;41.67;29.83;;;4.00;99.80;;;;;;5063898;28;20239;-84
2021/11/25 00:03:41;;;;;;;39.40;29.13;;;4.00;99.80;;;;;;5063244;28;20707;-83
2021/11/25 00:06:09;;;;;;;40.75;28.80;;;4.00;99.80;;;;;;5052881;28;20319;-84
2021/11/25 00:08:37;;;;;;;42.08;30.10;;;4.00;99.80;;;;;;5066080;28;20310;-84
2021/11/25 00:11:05;;;;;;;37.70;28.20;;;4.00;99.80;;;;;;5056683;28;20598;-84
2021/11/25 00:13:33;;;;;;;43.47;30.67;;;4.00;99.80;;;;;;5037240;28;20239;-83
2021/11/25 00:16:02;;;;;;;41.58;30.17;;;4.00;99.80;;;;;;5066571;28;20227;-84
2021/11/25 00:18:31;;;;;;;44.33;32.05;;;4.00;99.80;;;;;;5048342;28;20232;-83
2021/11/25 00:21:00;;;;;;;42.55;29.08;;;4.00;99.80;;;;;;5050331;28;20287;-85
2021/11/25 00:23:28;;;;;;;40.92;28.95;;;4.00;99.80;;;;;;5062271;28;20246;-85
2021/11/25 00:25:56;;;;;;;51.88;32.38;;;4.00;99.80;;;;;;5044301;28;20277;-85
2021/11/25 00:28:25;;;;;;;45.38;31.27;;;4.00;99.80;;;;;;5055707;28;20356;-84
2021/11/25 00:30:55;;;;;;;47.22;31.48;;;4.00;99.80;;;;;;5057695;28;20233;-85
2021/11/25 00:33:23;;;;;;;46.85;32.25;;;4.00;99.80;;;;;;5048371;28;20227;-85
2021/11/25 00:35:51;;;;;;;49.03;33.75;;;3.90;99.80;;;;;;5062027;28;20239;-83
2021/11/25 00:38:20;;;;;;;48.38;31.23;;;3.90;99.80;;;;;;5069195;28;20296;-85
2021/11/25 00:40:49;;;;;;;49.03;32.15;;;3.90;99.80;;;;;;5064215;28;20234;-84
2021/11/25 00:43:17;;;;;;;51.38;33.67;;;3.90;99.80;;;;;;5064843;28;20711;-85
2021/11/25 00:45:48;;;;;;;46.67;30.95;;;3.90;99.80;;;;;;5064940;28;20314;-83
2021/11/25 00:48:16;;;;;;;52.45;32.80;;;3.90;99.80;;;;;;5061131;28;20677;-87
2021/11/25 00:50:44;;;;;;;52.03;31.83;;;3.90;99.80;;;;;;5063225;28;20231;-86
2021/11/25 00:53:14;;;;;;;50.17;33.92;;;3.90;99.80;;;;;;5053398;28;20223;-84
2021/11/25 00:55:44;;;;;;;49.45;32.58;;;3.90;99.80;;;;;;5073131;28;20228;-84
2021/11/25 00:58:12;;;;;;;53.17;34.10;;;3.90;99.80;;;;;;5063359;28;20226;-86
2021/11/25 01:00:40;;;;;;;53.17;32.90;;;3.90;99.80;;;;;;5057022;28;20228;-88
2021/11/25 01:03:09;;;;;;;51.58;33.67;;;3.90;99.80;;;;;;5071900;28;20224;-86
2021/11/25 01:05:40;;;;;;;54.58;33.45;;;4.00;99.80;;;;;;5065801;28;20274;-85
2021/11/25 01:08:08;;;;;;;47.70;31.38;;;3.90;99.80;;;;;;5067206;28;20761;-84
2021/11/25 01:10:36;;;;;;;48.35;32.15;;;3.90;99.80;;;;;;5071612;28;20234;-84
2021/11/25 01:13:06;;;;;;;52.95;32.25;;;3.90;99.80;;;;;;5063918;28;20316;-83
2021/11/25 01:15:35;;;;;;;57.72;34.28;;;3.90;99.80;;;;;;5061945;28;20311;-84
2021/11/25 01:18:06;;;;;;;49.10;32.53;;;3.90;99.80;;;;;;5057229;28;20222;-83
2021/11/25 01:20:35;;;;;;;45.83;30.75;;;3.90;99.80;;;;;;5062592;28;20227;-84
2021/11/25 01:23:06;;;;;;;47.78;30.35;;;3.90;99.80;;;;;;5068304;28;20286;-84
2021/11/25 01:25:34;;;;;;;47.88;31.25;;;3.90;99.80;;;;;;5060655;28;20228;-84
2021/11/25 01:28:03;;;;;;;54.67;34.40;;;3.90;99.80;;;;;;5055018;28;20216;-83
2021/11/25 01:30:32;;;;;;;54.17;33.35;;;4.00;99.80;;;;;;5054472;28;20245;-83
2021/11/25 01:33:01;;;;;;;51.83;32.03;;;3.90;99.80;;;;;;5074088;28;20223;-83
2021/11/25 01:35:29;;;;;;;51.90;33.45;;;3.90;99.80;;;;;;5043519;28;20247;-84
2021/11/25 01:37:57;;;;;;;53.85;34.63;;;3.90;99.80;;;;;;5069960;28;20223;-84
2021/11/25 01:40:25;;;;;;;55.97;34.78;;;3.90;99.80;;;;;;5063643;28;20230;-83
2021/11/25 01:42:53;;;;;;;51.03;34.03;;;3.90;99.80;;;;;;5065800;28;20228;-84
2021/11/25 01:45:24;;;;;;;53.65;33.92;;;3.90;99.80;;;;;;5060586;28;20302;-84
2021/11/25 01:47:55;;;;;;;49.08;33.20;;;3.90;99.80;;;;;;5051192;28;20314;-84
2021/11/25 01:50:26;;;;;;;52.47;33.63;;;3.90;99.80;;;;;;5070398;28;20224;-83
2021/11/25 01:52:54;;;;;;;47.00;30.73;;;3.90;99.80;;;;;;5068567;28;20232;-83
2021/11/25 01:55:23;;;;;;;56.25;34.53;;;3.90;99.80;;;;;;5059524;28;20274;-84
2021/11/25 01:57:52;;;;;;;49.95;33.33;;;3.90;99.80;;;;;;5060736;28;20858;-83
2021/11/25 02:00:27;;;;;;;54.28;34.05;;;3.90;99.80;;;;;;5056911;28;20226;-84
2021/11/25 02:03:00;;;;;;;51.80;33.47;;;3.90;99.80;;;;;;5070644;28;20224;-83
2021/11/25 02:05:29;;;;;;;53.78;34.03;;;3.90;99.80;;;;;;5061843;28;20233;-84
2021/11/25 02:07:57;;;;;;;54.80;34.88;;;3.90;99.80;;;;;;5065306;28;20225;-84
2021/11/25 02:10:26;;;;;;;51.10;33.35;;;3.90;99.80;;;;;;5067639;28;20223;-84
2021/11/25 02:12:54;;;;;;;53.33;32.90;;;4.00;99.80;;;;;;5067617;28;20224;-83
2021/11/25 02:15:22;;;;;;;48.65;31.40;;;4.00;99.80;;;;;;5058357;28;20220;-83
2021/11/25 02:17:50;;;;;;;46.58;31.90;;;4.00;99.80;;;;;;5068786;28;20666;-83
2021/11/25 02:20:20;;;;;;;48.45;31.63;;;4.00;99.80;;;;;;5062561;28;20228;-83
2021/11/25 02:22:49;;;;;;;47.20;30.80;;;4.00;99.80;;;;;;5065212;28;20601;-84
2021/11/25 02:25:17;;;;;;;44.65;30.45;;;3.90;99.80;;;;;;5063075;28;20227;-84
2021/11/25 02:27:46;;;;;;;49.63;32.95;;;3.90;99.80;;;;;;5048883;28;20230;-84
2021/11/25 02:30:15;;;;;;;50.15;31.63;;;3.90;99.80;;;;;;5061097;28;20230;-84
2021/11/25 02:32:45;;;;;;;42.58;29.42;;;3.90;99.80;;;;;;5056762;28;20234;-85
2021/11/25 02:35:16;;;;;;;41.47;27.27;;;3.90;99.80;;;;;;5048624;28;20226;-84
2021/11/25 02:37:44;;;;;;;41.33;28.27;;;3.90;99.80;;;;;;5059045;28;20228;-84
2021/11/25 02:40:17;;;;;;;42.70;29.05;;;3.90;99.80;;;;;;5060661;28;20277;-84
2021/11/25 02:42:45;;;;;;;52.00;28.65;;;3.90;99.80;;;;;;5054443;28;20238;-84
2021/11/25 02:45:13;;;;;;;44.65;29.73;;;3.80;99.80;;;;;;5054312;28;23030;-84
2021/11/25 02:47:41;;;;;;;49.65;32.53;;;3.80;99.80;;;;;;5053344;28;20223;-84
2021/11/25 02:50:10;;;;;;;45.72;29.75;;;3.80;99.80;;;;;;5060989;28;20237;-84
2021/11/25 02:52:40;;;;;;;47.67;30.58;;;3.80;99.80;;;;;;5066705;28;20235;-84
2021/11/25 02:55:08;;;;;;;44.38;28.58;;;3.80;99.80;;;;;;5061899;28;20232;-84
2021/11/25 02:57:40;;;;;;;44.80;29.60;;;3.80;99.80;;;;;;5049759;28;20219;-84
2021/11/25 03:00:17;;;;;;;43.67;27.80;;;3.80;99.80;;;;;;5054405;28;20232;-84
2021/11/25 03:02:44;;;;;;;46.40;29.67;;;3.80;99.80;;;;;;5069441;28;20694;-84
2021/11/25 03:05:14;;;;;;;48.50;30.98;;;3.80;99.80;;;;;;5054407;28;21819;-84
2021/11/25 03:07:42;;;;;;;48.35;31.38;;;3.80;99.80;;;;;;5061619;28;20227;-84
2021/11/25 03:10:10;;;;;;;51.45;30.63;;;3.80;99.80;;;;;;5050251;28;20660;-84
2021/11/25 03:12:39;;;;;;;49.05;31.45;;;3.80;99.80;;;;;;5044987;28;20230;-84
2021/11/25 03:15:08;;;;;;;48.50;29.88;;;3.80;99.80;;;;;;5056929;28;20238;-84
2021/11/25 03:17:38;;;;;;;50.53;30.63;;;3.80;99.80;;;;;;5053069;28;20718;-83
2021/11/25 03:20:07;;;;;;;50.15;30.95;;;3.80;99.80;;;;;;5054496;28;20303;-84
2021/11/25 03:22:35;;;;;;;46.20;29.17;;;3.80;99.80;;;;;;5056302;28;20224;-83
2021/11/25 03:25:04;;;;;;;48.13;31.85;;;3.80;99.80;;;;;;5050215;28;20655;-83
2021/11/25 03:27:32;;;;;;;53.38;31.15;;;3.80;99.80;;;;;;5044480;28;21146;-83
2021/11/25 03:30:02;;;;;;;51.10;32.10;;;3.80;99.80;;;;;;5037187;28;20239;-84
2021/11/25 03:32:30;;;;;;;52.13;34.28;;;3.90;99.80;;;;;;5059035;28;20234;-84
2021/11/25 03:34:58;;;;;;;54.00;34.45;;;3.90;99.80;;;;;;5052374;28;20601;-83
2021/11/25 03:37:26;;;;;;;54.90;33.45;;;3.90;99.80;;;;;;5054262;28;20232;-83
2021/11/25 03:39:54;;;;;;;45.08;30.35;;;3.80;99.80;;;;;;5061676;28;20230;-84
2021/11/25 03:42:22;;;;;;;44.40;30.05;;;3.80;99.80;;;;;;5054178;28;20249;-84
2021/11/25 03:44:51;;;;;;;46.13;29.83;;;3.80;99.80;;;;;;5054987;28;20658;-84
2021/11/25 03:47:21;;;;;;;48.97;33.03;;;3.80;99.80;;;;;;5049577;28;20233;-84
2021/11/25 03:49:49;;;;;;;52.10;33.28;;;3.80;99.80;;;;;;5050673;28;20239;-84
2021/11/25 03:52:17;;;;;;;45.72;28.52;;;3.80;99.80;;;;;;5050162;28;20234;-83
2021/11/25 03:54:45;;;;;;;52.53;32.80;;;3.80;99.80;;;;;;5059308;28;20238;-84
2021/11/25 03:57:14;;;;;;;46.50;29.73;;;3.80;99.80;;;;;;5052135;28;20230;-83
2021/11/25 03:59:42;;;;;;;48.55;28.85;;;3.80;99.80;;;;;;5057855;28;20234;-84
2021/11/25 04:02:10;;;;;;;50.60;31.50;;;3.80;99.80;;;;;;5043302;28;20600;-83
2021/11/25 04:04:40;;;;;;;43.72;28.52;;;3.80;99.80;;;;;;5050108;28;20701;-84
2021/11/25 04:07:08;;;;;;;47.20;29.67;;;3.80;99.80;;;;;;5055429;28;20259;-82
2021/11/25 04:09:36;;;;;;;43.60;28.75;;;3.80;99.80;;;;;;5057201;28;20219;-83
2021/11/25 04:12:05;;;;;;;55.00;30.65;;;3.80;99.80;;;;;;5058318;28;20602;-84
2021/11/25 04:14:34;;;;;;;56.10;31.25;;;3.80;99.80;;;;;;5062463;28;20293;-83
2021/11/25 04:17:03;;;;;;;51.33;30.25;;;3.80;99.80;;;;;;5073112;28;20589;-82
2021/11/25 04:19:31;;;;;;;47.55;29.85;;;3.80;99.80;;;;;;5061295;28;20243;-84
2021/11/25 04:22:01;;;;;;;73.18;40.78;;;3.80;99.80;;;;;;5069967;28;20352;-82
2021/11/25 04:24:29;;;;;;;55.35;34.63;;;3.80;99.80;;;;;;5068517;28;20711;-82
2021/11/25 04:26:57;;;;;;;49.17;30.63;;;3.90;99.80;;;;;;5068861;28;20224;-82
2021/11/25 04:29:26;;;;;;;58.83;31.23;;;3.90;99.80;;;;;;5064912;28;20224;-83
2021/11/25 04:37:26;;;;;;;52.42;31.50;;;3.90;99.80;;;;;;5052943;28;20227;-83
2021/11/25 04:39:55;;;;;;;51.97;30.17;;;3.90;99.80;;;;;;5072699;28;20238;-83
2021/11/25 04:42:23;;;;;;;52.92;33.95;;;3.80;99.80;;;;;;5055457;28;20307;-82
2021/11/25 04:44:51;;;;;;;55.35;32.58;;;3.80;99.80;;;;;;5062018;28;20313;-82
2021/11/25 04:47:19;;;;;;;46.03;29.27;;;3.80;99.80;;;;;;5041318;28;20248;-83
2021/11/25 04:49:47;;;;;;;50.17;31.67;;;3.80;99.80;;;;;;5056225;28;20232;-82
2021/11/25 04:52:15;;;;;;;48.50;29.40;;;3.80;99.80;;;;;;5081802;28;20713;-82
2021/11/25 04:54:46;;;;;;;49.08;29.55;;;3.80;99.80;;;;;;5070417;28;20597;-82
2021/11/25 04:57:14;;;;;;;45.80;29.48;;;3.80;99.80;;;;;;5065547;28;20216;-84
2021/11/25 04:59:42;;;;;;;52.78;33.38;;;3.80;99.80;;;;;;5046670;28;20219;-84
2021/11/25 05:02:10;;;;;;;42.05;28.50;;;3.80;99.80;;;;;;5058907;28;20740;-83
2021/11/25 05:04:39;;;;;;;49.88;29.83;;;3.80;99.80;;;;;;5055489;28;20220;-82
2021/11/25 05:07:07;;;;;;;45.25;28.92;;;3.80;99.80;;;;;;5080718;28;20220;-84
2021/11/25 05:09:35;;;;;;;53.60;29.30;;;3.80;99.80;;;;;;5063283;28;20253;-86
2021/11/25 05:12:05;;;;;;;51.33;30.75;;;3.80;99.80;;;;;;5057761;28;20232;-85
2021/11/25 05:14:33;;;;;;;47.17;28.95;;;3.80;99.80;;;;;;5051326;28;20228;-86
2021/11/25 05:17:01;;;;;;;46.33;29.20;;;3.80;99.80;;;;;;5047361;28;20244;-86
2021/11/25 05:19:31;;;;;;;43.10;29.40;;;3.80;99.80;;;;;;5051737;28;20230;-86
2021/11/25 05:21:59;;;;;;;46.00;29.55;;;3.80;99.80;;;;;;5064866;28;20242;-86
2021/11/25 05:24:27;;;;;;;52.30;30.42;;;3.80;99.80;;;;;;5056705;28;20216;-86
2021/11/25 05:26:56;;;;;;;42.40;29.25;;;3.80;99.80;;;;;;5064837;28;20235;-86
2021/11/25 05:29:25;;;;;;;51.10;31.35;;;3.80;99.80;;;;;;5059069;28;20225;-86
2021/11/25 05:31:53;;;;;;;50.00;31.27;;;3.80;99.80;;;;;;5048613;28;20237;-86
2021/11/25 05:34:21;;;;;;;47.97;30.92;;;3.80;99.80;;;;;;5061981;28;20278;-86
2021/11/25 05:36:49;;;;;;;54.10;31.17;;;3.80;99.80;;;;;;5062346;28;20235;-86
2021/11/25 05:39:17;;;;;;;49.38;29.65;;;3.80;99.80;;;;;;5056348;28;20220;-86
2021/11/25 05:41:45;;;;;;;49.75;30.52;;;3.80;99.80;;;;;;5049165;28;20240;-86
2021/11/25 05:44:13;;;;;;;53.03;31.63;;;3.80;99.80;;;;;;5057320;28;20340;-86
2021/11/25 05:46:43;;;;;;;46.78;30.10;;;3.80;99.80;;;;;;5049021;28;20708;-86
2021/11/25 05:49:11;;;;;;;48.50;30.30;;;3.80;99.80;;;;;;5063266;28;20216;-86
2021/11/25 05:51:39;;;;;;;53.05;34.15;;;3.90;99.80;;;;;;5054954;28;20230;-86
2021/11/25 05:54:07;;;;;;;48.00;30.85;;;3.80;99.80;;;;;;5044228;28;20227;-86
2021/11/25 05:56:35;;;;;;;50.25;30.98;;;3.90;99.80;;;;;;5062711;28;20217;-86
2021/11/25 05:59:03;;;;;;;46.22;30.48;;;3.90;99.80;;;;;;5039154;28;20227;-86
2021/11/25 06:01:31;;;;;;;45.67;30.58;;;3.90;99.80;;;;;;5062935;28;20322;-86
2021/11/25 06:04:01;;;;;;;46.75;30.30;;;3.80;99.80;;;;;;5046929;28;20750;-86
2021/11/25 06:06:29;;;;;;;45.78;28.63;;;3.80;99.80;;;;;;5054692;28;20231;-86
2021/11/25 06:08:57;;;;;;;40.70;27.27;;;3.90;99.80;;;;;;5058305;28;20231;-85
2021/11/25 06:11:25;;;;;;;42.78;28.92;;;3.90;99.80;;;;;;5061848;28;20914;-84
2021/11/25 06:13:53;;;;;;;44.47;29.13;;;3.80;99.80;;;;;;5036087;28;20979;-83
2021/11/25 06:16:21;;;;;;;48.22;30.13;;;3.80;99.80;;;;;;5057732;28;20671;-84
2021/11/25 06:18:49;;;;;;;50.08;30.73;;;3.80;99.80;;;;;;5059645;28;20231;-84
2021/11/25 06:21:19;;;;;;;53.92;33.03;;;3.90;99.80;;;;;;5059305;28;20233;-83
2021/11/25 06:23:47;;;;;;;47.38;30.15;;;3.90;99.80;;;;;;5052857;28;20222;-83
2021/11/25 06:26:15;;;;;;;47.88;30.77;;;3.80;99.80;;;;;;5057206;28;20220;-84
2021/11/25 06:28:43;;;;;;;45.55;29.38;;;3.80;99.80;;;;;;5059875;28;20221;-84
2021/11/25 06:31:11;;;;;;;51.80;30.58;;;3.80;99.80;;;;;;5065184;28;20229;-85
2021/11/25 06:33:39;;;;;;;46.50;29.60;;;3.80;99.80;;;;;;5044771;28;20227;-85
2021/11/25 06:36:07;;;;;;;48.80;30.45;;;3.80;99.80;;;;;;5064955;28;20234;-85
2021/11/25 06:38:36;;;;;;;47.25;30.15;;;3.80;99.80;;;;;;5063163;28;20226;-85
2021/11/25 06:41:07;;;;;;;50.70;31.17;;;3.80;99.80;;;;;;5056190;28;20232;-85
2021/11/25 06:43:35;;;;;;;50.22;30.50;;;3.80;99.80;;;;;;5047421;28;20236;-85
2021/11/25 06:46:03;;;;;;;45.28;31.40;;;3.80;99.80;;;;;;5049927;28;20611;-85
2021/11/25 06:48:32;;;;;;;45.42;29.42;;;3.80;99.80;;;;;;5052434;28;20300;-85
2021/11/25 06:51:00;;;;;;;49.95;32.28;;;3.80;99.80;;;;;;5056252;28;20240;-85
2021/11/25 06:53:28;;;;;;;44.83;29.83;;;3.80;99.80;;;;;;5058640;28;20235;-84
2021/11/25 06:55:58;;;;;;;50.70;30.30;;;3.80;99.80;;;;;;5056370;28;20614;-85
2021/11/25 06:58:27;;;;;;;46.33;30.02;;;3.80;99.80;;;;;;5049008;28;20691;-84
2021/11/25 07:00:56;;;;;;;51.22;30.13;;;3.80;99.80;;;;;;5061109;28;20238;-85
2021/11/25 07:03:24;;;;;;;48.35;29.95;;;3.80;99.80;;;;;;5063526;28;20230;-86
2021/11/25 07:05:52;;;;;;;45.40;29.15;;;3.80;99.80;;;;;;5078780;28;20223;-86
2021/11/25 07:08:20;;;;;;;49.60;30.85;;;3.80;99.80;;;;;;5067455;28;20227;-85
2021/11/25 07:10:48;;;;;;;50.28;31.83;;;3.80;99.80;;;;;;5057432;28;20277;-85
2021/11/25 07:13:17;;;;;;;50.03;30.27;;;3.90;99.80;;;;;;5056413;28;20423;-85
2021/11/25 07:15:47;;;;;;;47.88;29.98;;;3.90;99.80;;;;;;5050790;28;20239;-85
2021/11/25 07:18:15;;;;;;;48.42;30.88;;;3.80;99.80;;;;;;5055433;28;20725;-85
2021/11/25 07:20:43;;;;;;;51.05;30.75;;;3.80;99.80;;;;;;5054491;28;20227;-85
2021/11/25 07:23:11;;;;;;;43.50;29.02;;;3.80;99.80;;;;;;5055806;28;20235;-85
2021/11/25 07:25:40;;;;;;;57.28;32.67;;;3.80;99.80;;;;;;5053321;28;20847;-85
2021/11/25 07:28:08;;;;;;;46.92;30.20;;;3.80;99.80;;;;;;5062842;28;20226;-85
2021/11/25 07:30:38;;;;;;;63.28;37.33;;;3.80;99.80;;;;;;5056594;28;20228;-85
2021/11/25 07:33:06;;;;;;;60.28;36.45;;;3.90;99.80;;;;;;5060478;28;20237;-85
2021/11/25 07:35:34;;;;;;;49.97;33.80;;;3.90;99.80;;;;;;5051831;28;20228;-85
2021/11/25 07:38:03;;;;;;;47.25;31.02;;;3.90;99.80;;;;;;5054244;28;20227;-85
2021/11/25 07:40:31;;;;;;;51.35;32.88;;;3.90;99.80;;;;;;5051352;28;20218;-84
2021/11/25 07:43:00;;;;;;;45.10;30.85;;;4.00;99.80;;;;;;5041353;28;20702;-85
2021/11/25 07:45:31;;;;;;;46.97;29.80;;;4.00;99.80;;;;;;5053716;28;20223;-85
2021/11/25 07:48:00;;;;;;;53.08;31.02;;;4.00;99.80;;;;;;5061477;28;20302;-85
2021/11/25 07:50:28;;;;;;;45.45;29.67;;;4.00;99.80;;;;;;5046694;28;20234;-85
2021/11/25 07:52:58;;;;;;;51.15;30.77;;;4.10;99.80;;;;;;5057091;28;20242;-85
2021/11/25 07:55:28;;;;;;;39.58;27.33;;;4.00;99.80;;;;;;5055946;28;20220;-86
2021/11/25 07:57:56;;;;;;;45.65;28.80;;;4.00;99.80;;;;;;5050161;28;20231;-85
2021/11/25 08:00:27;;;;;;;58.28;31.95;;;4.10;99.80;;;;;;5052163;28;20715;-85
2021/11/25 08:02:56;;;;;;;41.53;28.42;;;4.10;99.80;;;;;;5051363;28;20243;-86
2021/11/25 08:05:26;;;;;;;52.10;30.98;;;4.10;99.80;;;;;;5060456;28;20228;-85
2021/11/25 08:07:55;;;;;;;45.72;29.35;;;4.10;99.80;;;;;;5058000;28;20227;-85
2021/11/25 08:10:25;;;;;;;46.90;30.40;;;4.10;99.80;;;;;;5043902;28;20701;-85
2021/11/25 08:12:58;;;;;;;46.92;31.98;;;4.10;99.80;;;;;;5042583;28;20636;-84
2021/11/25 08:15:26;;;;;;;48.47;32.22;;;4.10;99.80;;;;;;5047193;28;20246;-84
2021/11/25 08:17:55;;;;;;;43.72;29.00;;;4.10;99.80;;;;;;5049567;28;20228;-84
2021/11/25 08:20:25;;;;;;;53.65;32.55;;;4.10;99.80;;;;;;5045999;28;20227;-85
2021/11/25 08:22:53;;;;;;;46.80;31.38;;;4.10;99.80;;;;;;5057205;28;20718;-84
2021/11/25 08:25:23;;;;;;;50.05;30.90;;;4.20;99.80;;;;;;5060446;28;20235;-84
2021/11/25 08:27:55;;;;;;;50.30;30.13;;;4.20;99.80;;;;;;5056683;28;20224;-85
2021/11/25 08:30:24;;;;;;;47.72;30.52;;;4.30;99.80;;;;;;5056304;28;20220;-84
2021/11/25 08:32:52;;;;;;;48.15;32.03;;;4.30;99.80;;;;;;5047593;28;20240;-84
2021/11/25 08:35:21;;;;;;;53.88;33.05;;;4.30;99.80;;;;;;5054423;28;20310;-84
2021/11/25 08:38:00;;;;;;;54.83;33.70;;;4.40;99.80;;;;;;5051375;28;20289;-85
2021/11/25 08:40:28;;;;;;;45.42;30.65;;;4.40;99.80;;;;;;5044908;28;20244;-84
2021/11/25 08:42:56;;;;;;;62.90;34.03;;;4.40;99.80;;;;;;5038567;28;20811;-84
2021/11/25 08:45:24;;;;;;;51.33;30.90;;;4.50;99.80;;;;;;5061505;28;20853;-84
2021/11/25 08:47:52;;;;;;;57.55;35.20;;;4.50;99.80;;;;;;5063543;28;20698;-84
2021/11/25 08:50:20;;;;;;;56.30;34.13;;;4.60;99.80;;;;;;5042500;28;20227;-85
2021/11/25 08:52:50;;;;;;;51.90;33.78;;;4.50;99.80;;;;;;5083648;22;20706;-84
2021/11/25 08:55:18;;;;;;;55.22;33.92;;;4.50;99.80;;;;;;5065149;28;20231;-85
2021/11/25 08:57:46;;;;;;;49.10;31.55;;;4.50;99.80;;;;;;5063508;28;20255;-84
2021/11/25 09:00:22;;;;;;;59.25;34.38;;;4.60;99.80;;;;;;5040997;28;20256;-84
2021/11/25 09:02:51;;;;;;;53.83;33.53;;;4.50;99.80;;;;;;5054467;28;20318;-85
2021/11/25 09:05:21;;;;;;;66.70;32.25;;;4.50;99.80;;;;;;5069849;28;20308;-85
2021/11/25 09:07:51;;;;;;;53.95;32.60;;;4.50;99.80;;;;;;5053115;28;20227;-85
2021/11/25 09:10:19;;;;;;;51.63;31.33;;;4.50;99.80;;;;;;5056695;28;20710;-85
2021/11/25 09:12:48;;;;;;;50.63;34.40;;;4.50;99.80;;;;;;5046621;28;20245;-84
2021/11/25 09:15:20;;;;;;;52.15;31.38;;;4.40;99.80;;;;;;5055395;28;20269;-84
2021/11/25 09:17:48;;;;;;;50.50;29.88;;;4.50;99.80;;;;;;5054016;28;20826;-84
2021/11/25 09:20:24;;;;;;;49.45;30.75;;;4.40;99.80;;;;;;5049703;28;20227;-84
2021/11/25 09:22:54;;;;;;;49.55;30.98;;;4.40;99.80;;;;;;5055741;28;20232;-85
2021/11/25 09:25:22;;;;;;;47.35;31.27;;;4.40;99.80;;;;;;5052101;28;20231;-83
2021/11/25 09:27:50;;;;;;;44.72;29.33;;;4.40;99.80;;;;;;5056756;28;20231;-85
2021/11/25 09:30:19;;;;;;;53.70;32.55;;;4.50;99.80;;;;;;5045822;28;20253;-84
2021/11/25 09:32:47;;;;;;;60.22;31.80;;;4.50;99.80;;;;;;5062997;28;20724;-84
2021/11/25 09:35:19;;;;;;;46.50;31.08;;;4.50;99.80;;;;;;5051932;28;20238;-84
2021/11/25 09:37:52;;;;;;;50.00;31.33;;;4.50;99.80;;;;;;5058459;28;20271;-84
2021/11/25 09:40:29;;;;;;;51.10;31.17;;;4.60;99.80;;;;;;5063063;28;20227;-84
2021/11/25 09:43:04;;;;;;;47.70;30.30;;;4.50;99.80;;;;;;5035160;28;21857;-85
2021/11/25 09:45:36;;;;;;;54.33;31.42;;;4.50;99.80;;;;;;5042848;28;20233;-85
2021/11/25 09:48:08;;;;;;;48.92;30.50;;;4.50;99.80;;;;;;5051530;28;20232;-84
2021/11/25 09:50:38;;;;;;;51.90;31.15;;;4.50;99.80;;;;;;5052570;28;20801;-85
2021/11/25 09:53:09;;;;;;;49.45;30.27;;;4.60;99.80;;;;;;5047552;28;20228;-85
2021/11/25 09:55:40;;;;;;;50.63;30.77;;;4.60;99.80;;;;;;5056425;28;20233;-85
2021/11/25 09:58:12;;;;;;;50.13;31.33;;;4.70;99.80;;;;;;5055639;28;20235;-86
2021/11/25 10:00:42;;;;;;;52.00;32.45;;;4.70;99.80;;;;;;5047395;28;20230;-84
2021/11/25 10:03:15;;;;;;;53.40;34.40;;;4.80;99.80;;;;;;5071594;28;20220;-86
2021/11/25 10:05:47;;;;;;;45.35;28.65;;;4.70;99.80;;;;;;5047343;28;20738;-84
2021/11/25 10:08:24;;;;;;;48.30;30.40;;;4.70;99.80;;;;;;5057342;28;20575;-85
2021/11/25 10:11:09;;;;;;;43.83;28.83;;;4.70;99.80;;;;;;5058588;28;20223;-86
2021/11/25 10:13:42;;;;;;;46.58;29.85;;;4.70;99.80;;;;;;5055490;28;20223;-85
2021/11/25 10:16:13;;;;;;;53.35;32.00;;;4.70;99.80;;;;;;5048788;28;20318;-88
2021/11/25 10:18:42;;;;;;;55.38;31.67;;;4.70;99.80;;;;;;5048869;28;20256;-85
2021/11/25 10:21:12;;;;;;;46.67;30.73;;;4.80;99.80;;;;;;5061184;28;20639;-86
2021/11/25 10:23:41;;;;;;;55.13;32.70;;;4.70;99.80;;;;;;5054703;28;20246;-85
2021/11/25 10:26:13;;;;;;;55.47;30.65;;;4.60;99.80;;;;;;5047654;28;20243;-83
2021/11/25 10:28:44;;;;;;;49.88;30.83;;;4.60;99.80;;;;;;5050704;28;20221;-83
2021/11/25 10:31:17;;;;;;;49.13;31.15;;;4.60;99.80;;;;;;5044777;28;20234;-83
2021/11/25 10:33:50;;;;;;;46.88;28.95;;;4.50;99.80;;;;;;5052086;28;20259;-84
2021/11/25 10:36:40;;;;;;;45.58;28.55;;;4.40;99.80;;;;;;5051462;28;20225;-82
2021/11/25 10:42:03;;;;;;;49.65;31.60;;;4.50;99.80;;;;;;5057069;28;20242;-83
2021/11/25 10:44:34;;;;;;;47.85;28.48;;;4.50;99.80;;;;;;5060269;28;20238;-83
2021/11/25 10:47:06;;;;;;;49.25;30.10;;;4.60;99.80;;;;;;5058609;28;20746;-83
2021/11/25 10:49:43;;;;;;;52.45;30.65;;;4.60;99.80;;;;;;5059965;28;20224;-85
2021/11/25 10:52:14;;;;;;;56.28;31.33;;;4.60;99.80;;;;;;5074586;28;20235;-83
2021/11/25 10:54:45;;;;;;;56.05;31.52;;;4.60;99.80;;;;;;5071797;28;20227;-83
2021/11/25 10:57:15;;;;;;;51.08;32.47;;;4.80;99.80;;;;;;5068251;28;20230;-83
2021/11/25 10:59:45;;;;;;;50.65;31.17;;;4.90;99.80;;;;;;5048786;28;20220;-83
2021/11/25 11:02:29;;;;;;;46.65;31.40;;;4.90;99.80;;;;;;5026722;28;20414;-83
2021/11/25 11:05:00;;;;;;;53.40;32.92;;;4.90;99.80;;;;;;5056237;28;20221;-83
2021/11/25 11:07:31;;;;;;;52.58;29.60;;;5.00;99.80;;;;;;5057437;28;20304;-83
2021/11/25 11:09:59;;;;;;;54.15;31.92;;;4.90;99.80;;;;;;5056895;28;20251;-84
2021/11/25 11:12:33;;;;;;;48.55;30.77;;;4.90;99.80;;;;;;5059789;28;20236;-84
2021/11/25 11:15:25;;;;;;;52.05;31.58;;;4.90;99.80;;;;;;5060067;28;20227;-84
2021/11/25 11:20:48;;;;;;;51.45;30.83;;;4.90;99.80;;;;;;5023109;28;20745;-83
2021/11/25 11:23:18;;;;;;;51.13;32.90;;;4.90;99.80;;;;;;5061221;28;20310;-83
2021/11/25 11:25:48;;;;;;;52.95;32.90;;;4.90;99.80;;;;;;5063491;28;20229;-81
2021/11/25 11:28:18;;;;;;;53.45;30.90;;;5.00;99.80;;;;;;5063643;28;20219;-83
2021/11/25 11:30:47;;;;;;;55.05;32.70;;;5.00;99.80;;;;;;5056923;28;20654;-83
2021/11/25 11:33:17;;;;;;;47.78;30.02;;;5.00;99.80;;;;;;5044654;28;20247;-84
2021/11/25 11:35:47;;;;;;;59.88;32.20;;;5.10;99.80;;;;;;5053133;28;20286;-84
2021/11/25 11:38:16;;;;;;;60.08;36.80;;;5.00;99.80;;;;;;5053318;28;20632;-83
2021/11/25 11:40:45;;;;;;;53.85;31.95;;;5.10;99.80;;;;;;5057708;28;20753;-85
2021/11/25 11:43:14;;;;;;;55.22;32.28;;;5.00;99.80;;;;;;5053528;28;20231;-84
2021/11/25 11:45:44;;;;;;;55.38;31.95;;;5.00;99.80;;;;;;5058274;28;20230;-84
2021/11/25 11:48:14;;;;;;;58.35;36.72;;;5.00;99.80;;;;;;5057308;28;20234;-83
2021/11/25 11:50:44;;;;;;;53.88;31.40;;;5.00;99.80;;;;;;5054951;28;20231;-83
2021/11/25 11:53:17;;;;;;;48.97;31.02;;;5.00;99.80;;;;;;5067171;28;20251;-83
2021/11/25 11:55:48;;;;;;;51.13;31.85;;;5.10;99.80;;;;;;5067848;28;20324;-84
2021/11/25 11:58:32;;;;;;;51.97;31.30;;;5.10;99.80;;;;;;5053043;28;20237;-83
2021/11/25 12:01:08;;;;;;;48.97;30.60;;;5.00;99.80;;;;;;5047632;28;20261;-84
2021/11/25 12:03:44;;;;;;;50.35;31.10;;;5.00;99.80;;;;;;5062279;28;20325;-84
2021/11/25 12:06:29;;;;;;;51.95;31.50;;;5.10;99.80;;;;;;5065171;28;20706;-83
2021/11/25 12:08:57;;;;;;;48.67;30.40;;;5.10;99.80;;;;;;5057357;28;20235;-82
2021/11/25 12:11:38;;;;;;;56.97;34.10;;;5.20;99.80;;;;;;5067576;28;20232;-83
2021/11/25 12:14:14;;;;;;;53.25;31.42;;;5.20;99.80;;;;;;5057004;28;20265;-82
2021/11/25 12:16:50;;;;;;;56.72;34.40;;;5.20;99.80;;;;;;5073436;28;20708;-82
2021/11/25 12:19:28;;;;;;;52.95;34.08;;;5.20;99.80;;;;;;5067224;28;20227;-82
2021/11/25 12:21:57;;;;;;;49.10;30.55;;;5.30;99.80;;;;;;5077704;28;20236;-81
2021/11/25 12:24:31;;;;;;;63.55;36.28;;;5.30;99.80;;;;;;5072753;28;20224;-83
2021/11/25 12:27:13;;;;;;;62.58;35.47;;;5.30;99.80;;;;;;5074870;28;20304;-82
2021/11/25 12:30:05;;;;;;;59.00;36.10;;;5.30;99.80;;;;;;5069829;28;20231;-83
2021/11/25 12:32:38;;;;;;;53.70;32.97;;;5.30;99.80;;;;;;5064675;28;20220;-81
2021/11/25 12:35:41;;;;;;;51.40;33.17;;;5.30;99.80;;;;;;5079342;28;20234;-82
2021/11/25 12:38:18;;;;;;;49.90;33.00;;;5.30;99.80;;;;;;5072130;28;20921;-82
2021/11/25 12:40:53;;;;;;;56.72;31.55;;;5.30;99.80;;;;;;5068272;28;20305;-82
2021/11/25 12:43:23;;;;;;;54.17;34.40;;;5.40;99.80;;;;;;5075040;28;20308;-83
2021/11/25 12:45:54;;;;;;;54.92;33.40;;;5.40;99.80;;;;;;5062251;28;20235;-83
2021/11/25 12:48:30;;;;;;;57.88;34.58;;;5.40;99.80;;;;;;5068177;28;20223;-82
2021/11/25 12:51:03;;;;;;;55.67;33.85;;;5.40;99.80;;;;;;5084665;28;20228;-82
2021/11/25 12:53:34;;;;;;;59.97;33.78;;;5.40;99.80;;;;;;5077265;28;20223;-82
2021/11/25 12:56:07;;;;;;;49.90;31.38;;;5.40;99.80;;;;;;5075887;28;20314;-82
2021/11/25 12:58:39;;;;;;;56.45;34.97;;;5.40;99.80;;;;;;5077170;28;20760;-83
2021/11/25 13:01:12;;;;;;;62.08;33.95;;;5.40;99.80;;;;;;5068769;28;20500;-82